Time;durP1;ratioP1;P1;durP2;ratioP2;P2;SDS_P1;SDS_P2;PMS_P1;PMS_P2;Temp;Humidity;BMP_temperature;BMP_pressure;BME280_temperature;BME280_humidity;BME280_pressure;Samples;Min_cycle;Max_cycle;Signal;HPM_P1;HPM_P2
2023/07/02 00:01:58;;;;;;;6.60;5.60;;;25.30;64.60;;;;;;222548;1264;24276;-45
2023/07/02 00:07:04;;;;;;;9.30;5.30;;;25.20;64.30;;;;;;222577;1261;22504;-47
2023/07/02 00:12:09;;;;;;;6.60;5.90;;;25.20;64.20;;;;;;222514;1260;24321;-45
2023/07/02 00:17:13;;;;;;;7.20;5.40;;;25.20;64.20;;;;;;222534;1254;22515;-46
2023/07/02 00:22:17;;;;;;;7.40;5.80;;;25.20;64.00;;;;;;223172;1254;22519;-45
2023/07/02 00:27:21;;;;;;;5.80;5.30;;;25.30;64.20;;;;;;222261;1254;22652;-45
2023/07/02 00:32:25;;;;;;;7.70;5.70;;;25.30;64.00;;;;;;222563;1254;22718;-45
2023/07/02 00:37:30;;;;;;;7.50;6.80;;;25.40;63.20;;;;;;222421;1255;22512;-45
2023/07/02 00:42:35;;;;;;;6.80;6.30;;;25.40;63.50;;;;;;222346;1260;22583;-43
2023/07/02 00:47:40;;;;;;;7.90;7.20;;;25.30;63.40;;;;;;222374;1254;24243;-44
2023/07/02 00:52:44;;;;;;;7.00;6.30;;;25.30;63.40;;;;;;222379;1254;24666;-46
2023/07/02 00:57:48;;;;;;;7.90;6.10;;;25.30;63.90;;;;;;222464;1244;24295;-45
2023/07/02 01:02:59;;;;;;;6.50;5.90;;;25.30;63.80;;;;;;222312;1254;22532;-45
2023/07/02 01:08:07;;;;;;;7.00;6.30;;;25.30;63.70;;;;;;222152;1258;26541;-45
2023/07/02 01:13:16;;;;;;;8.60;6.10;;;25.40;63.50;;;;;;222115;1254;25300;-44
2023/07/02 01:18:21;;;;;;;7.40;5.80;;;25.40;64.00;;;;;;222369;1254;22837;-45
2023/07/02 01:23:26;;;;;;;6.50;5.80;;;25.40;64.60;;;;;;222548;1261;22507;-46
2023/07/02 01:28:36;;;;;;;7.50;6.30;;;25.40;64.60;;;;;;222147;1253;22563;-45
2023/07/02 01:33:40;;;;;;;6.70;5.60;;;25.30;63.70;;;;;;222674;1254;24847;-45
2023/07/02 01:38:45;;;;;;;8.60;5.90;;;25.30;63.90;;;;;;222678;1254;22519;-47
2023/07/02 01:43:49;;;;;;;6.00;5.40;;;25.40;63.50;;;;;;222508;1254;24065;-46
2023/07/02 01:48:53;;;;;;;7.40;5.40;;;25.30;63.20;;;;;;222117;1245;22539;-45
2023/07/02 01:53:57;;;;;;;5.50;5.10;;;25.30;63.40;;;;;;229741;1261;22718;-44
2023/07/02 01:59:01;;;;;;;6.10;4.50;;;25.40;63.00;;;;;;230314;1261;22221;-45
2023/07/02 02:04:05;;;;;;;4.70;4.40;;;25.60;62.30;;;;;;230092;1254;22533;-45
2023/07/02 02:09:09;;;;;;;4.70;4.40;;;25.80;61.80;;;;;;223582;1245;22515;-49
2023/07/02 02:14:14;;;;;;;5.10;4.70;;;25.90;61.70;;;;;;222286;1263;268275;-47
2023/07/02 02:19:18;;;;;;;4.60;4.10;;;25.70;62.00;;;;;;222343;1256;25578;-46
2023/07/02 02:24:22;;;;;;;5.00;4.60;;;25.60;62.10;;;;;;222334;1260;22636;-44
2023/07/02 02:29:26;;;;;;;4.00;3.70;;;25.60;62.10;;;;;;222184;1260;25248;-46
2023/07/02 02:34:30;;;;;;;4.20;3.90;;;25.40;62.40;;;;;;222317;1254;24057;-46
2023/07/02 02:39:35;;;;;;;6.80;3.90;;;25.40;63.00;;;;;;222362;1247;25435;-46
2023/07/02 02:44:39;;;;;;;3.80;3.50;;;25.40;62.10;;;;;;222605;1254;22586;-45
2023/07/02 02:49:43;;;;;;;3.30;3.10;;;25.40;62.80;;;;;;222341;1254;22660;-46
2023/07/02 02:54:48;;;;;;;3.70;3.20;;;25.40;62.40;;;;;;222292;1253;22521;-46
2023/07/02 02:59:52;;;;;;;3.10;2.90;;;25.40;62.80;;;;;;222309;1253;22529;-44
2023/07/02 03:04:56;;;;;;;3.20;3.00;;;25.40;62.90;;;;;;222122;1253;22534;-45
2023/07/02 03:10:01;;;;;;;3.10;2.80;;;25.30;62.70;;;;;;222376;1260;22610;-45
2023/07/02 03:15:07;;;;;;;3.30;3.00;;;25.30;63.20;;;;;;222148;1252;24190;-46
2023/07/02 03:20:11;;;;;;;6.10;2.80;;;25.30;62.90;;;;;;222305;1250;26682;-44
2023/07/02 03:25:15;;;;;;;2.80;2.60;;;25.30;63.00;;;;;;222632;1260;24340;-46
2023/07/02 03:30:20;;;;;;;2.70;2.50;;;25.30;63.00;;;;;;222455;1254;24085;-46
2023/07/02 03:35:24;;;;;;;2.30;2.20;;;25.30;62.90;;;;;;222399;1254;22757;-45
2023/07/02 03:40:28;;;;;;;2.60;2.40;;;25.30;63.00;;;;;;222435;1254;22536;-43
2023/07/02 03:45:32;;;;;;;5.00;2.00;;;25.30;63.00;;;;;;222324;1254;22516;-46
2023/07/02 03:50:36;;;;;;;2.10;1.90;;;25.20;63.10;;;;;;222309;1248;22667;-44
2023/07/02 03:55:40;;;;;;;2.40;2.20;;;25.30;63.00;;;;;;230370;1263;22207;-46
2023/07/02 04:00:44;;;;;;;2.30;2.10;;;25.40;62.60;;;;;;225651;1253;25249;-45
2023/07/02 04:05:48;;;;;;;1.60;1.50;;;25.40;62.50;;;;;;223578;1260;22501;-43
2023/07/02 04:10:52;;;;;;;1.80;1.60;;;25.40;62.70;;;;;;222263;1264;22508;-46
2023/07/02 04:15:57;;;;;;;2.10;2.00;;;25.30;63.10;;;;;;222170;1260;22520;-44
2023/07/02 04:21:02;;;;;;;2.10;1.90;;;25.20;63.30;;;;;;220898;1268;25274;-46
2023/07/02 04:26:06;;;;;;;2.00;1.80;;;25.20;63.40;;;;;;220835;1269;22789;-46
2023/07/02 04:31:30;;;;;;;4.30;2.10;;;25.30;63.50;;;;;;220645;1261;24242;-46
2023/07/02 04:36:34;;;;;;;2.10;1.90;;;25.30;63.30;;;;;;221166;1254;22561;-47
2023/07/02 04:41:38;;;;;;;2.30;1.70;;;25.20;63.30;;;;;;222343;1257;24079;-45
2023/07/02 04:46:42;;;;;;;1.60;1.50;;;25.30;63.20;;;;;;222768;1254;22519;-44
2023/07/02 04:51:47;;;;;;;1.90;1.60;;;25.20;63.10;;;;;;222230;1257;24365;-46
2023/07/02 04:56:51;;;;;;;3.00;1.70;;;25.30;63.20;;;;;;222264;1254;22631;-45
2023/07/02 05:01:55;;;;;;;1.60;1.40;;;25.30;63.00;;;;;;222041;1262;23934;-46
2023/07/02 05:07:04;;;;;;;2.60;1.50;;;25.30;63.10;;;;;;222523;1262;25278;-45
2023/07/02 05:12:09;;;;;;;1.70;1.60;;;25.20;63.30;;;;;;222109;1254;26694;-46
2023/07/02 05:17:15;;;;;;;1.90;1.80;;;25.20;63.10;;;;;;222199;1256;22548;-43
2023/07/02 05:22:19;;;;;;;4.50;1.50;;;25.20;63.10;;;;;;221912;1253;22520;-45
2023/07/02 05:27:23;;;;;;;2.20;1.30;;;25.30;63.40;;;;;;222191;1253;24169;-45
2023/07/02 05:32:27;;;;;;;1.40;1.30;;;25.30;63.00;;;;;;222243;1253;23002;-46
2023/07/02 05:37:31;;;;;;;1.50;1.40;;;25.20;63.10;;;;;;222272;1254;22508;-44
2023/07/02 05:42:37;;;;;;;3.30;1.60;;;25.20;63.30;;;;;;223361;1254;22583;-49
2023/07/02 05:47:41;;;;;;;1.90;1.80;;;25.20;63.10;;;;;;222536;1247;24238;-48
2023/07/02 05:52:46;;;;;;;1.50;1.40;;;25.20;63.00;;;;;;222010;1253;22500;-48
2023/07/02 05:57:50;;;;;;;5.70;1.30;;;25.20;63.10;;;;;;222527;1253;22522;-47
2023/07/02 06:02:54;;;;;;;1.60;1.50;;;25.20;63.50;;;;;;222354;1256;24199;-44
2023/07/02 06:07:59;;;;;;;1.80;1.20;;;25.10;63.20;;;;;;222249;1247;24224;-46
2023/07/02 06:13:03;;;;;;;3.20;1.30;;;25.10;63.30;;;;;;222457;1263;23013;-45
2023/07/02 06:18:07;;;;;;;1.10;1.10;;;25.20;63.40;;;;;;222169;1253;25272;-45
2023/07/02 06:23:11;;;;;;;2.90;1.60;;;25.10;63.80;;;;;;222156;1253;22562;-47
2023/07/02 06:28:15;;;;;;;1.90;1.40;;;25.10;63.30;;;;;;222453;1261;24183;-46
2023/07/02 06:33:21;;;;;;;1.30;1.30;;;25.20;63.30;;;;;;222307;1266;23910;-46
2023/07/02 06:38:25;;;;;;;6.90;1.80;;;25.10;63.30;;;;;;222077;1259;22781;-46
2023/07/02 06:43:30;;;;;;;1.80;1.30;;;25.10;63.30;;;;;;222281;1253;22517;-46
2023/07/02 06:48:34;;;;;;;2.10;1.70;;;25.20;63.60;;;;;;222210;1256;22511;-44
2023/07/02 06:53:40;;;;;;;1.40;1.30;;;25.10;63.80;;;;;;222204;1254;22534;-47
2023/07/02 06:58:44;;;;;;;1.50;1.20;;;25.10;63.20;;;;;;222369;1256;24156;-46
2023/07/02 07:03:48;;;;;;;3.90;1.50;;;25.10;63.00;;;;;;222528;1254;22627;-45
2023/07/02 07:08:52;;;;;;;1.20;1.00;;;25.10;63.10;;;;;;222108;1263;22509;-46
2023/07/02 07:13:56;;;;;;;1.40;1.30;;;25.20;62.90;;;;;;222374;1253;24203;-45
2023/07/02 07:19:01;;;;;;;1.50;1.40;;;25.20;63.00;;;;;;222074;1263;22514;-46
2023/07/02 07:24:05;;;;;;;2.70;1.40;;;25.20;63.10;;;;;;222418;1263;24221;-45
2023/07/02 07:29:10;;;;;;;1.00;1.00;;;25.20;63.10;;;;;;222550;1263;24241;-49
2023/07/02 07:34:14;;;;;;;1.10;1.00;;;25.20;63.00;;;;;;222417;1254;22500;-46
2023/07/02 07:39:19;;;;;;;1.40;1.30;;;25.20;63.10;;;;;;222760;1247;24384;-46
2023/07/02 07:44:23;;;;;;;1.60;1.20;;;25.20;63.20;;;;;;222249;1266;23132;-47
2023/07/02 07:49:29;;;;;;;3.00;1.30;;;25.40;62.60;;;;;;222419;1263;25242;-46
2023/07/02 07:54:36;;;;;;;1.00;0.90;;;25.40;62.80;;;;;;222326;1253;22510;-47
2023/07/02 07:59:42;;;;;;;2.40;1.20;;;25.40;62.80;;;;;;222362;1254;24179;-45
2023/07/02 08:04:46;;;;;;;20.70;2.00;;;25.40;62.80;;;;;;222548;1251;22642;-44
2023/07/02 08:09:50;;;;;;;1.50;1.20;;;25.40;62.80;;;;;;222357;1260;24221;-46
2023/07/02 08:14:55;;;;;;;7.00;1.80;;;25.40;63.20;;;;;;222563;1254;25249;-46
2023/07/02 08:19:59;;;;;;;4.00;1.40;;;25.40;63.90;;;;;;222160;1253;22636;-48
2023/07/02 08:25:04;;;;;;;2.60;1.40;;;25.40;63.50;;;;;;222419;1268;22505;-47
2023/07/02 08:30:09;;;;;;;6.60;3.00;;;25.40;63.20;;;;;;222724;1260;24167;-49
2023/07/02 08:35:14;;;;;;;12.90;6.30;;;25.40;63.20;;;;;;222626;1260;24575;-53
2023/07/02 08:40:19;;;;;;;5.70;3.50;;;25.40;63.50;;;;;;222745;1260;24272;-50
2023/07/02 08:45:26;;;;;;;2.90;2.70;;;25.40;63.60;;;;;;222437;1266;24316;-46
2023/07/02 08:50:31;;;;;;;4.20;2.70;;;25.40;63.70;;;;;;222787;1263;24425;-52
2023/07/02 08:55:35;;;;;;;5.30;2.60;;;25.40;63.80;;;;;;222404;1253;25412;-50
2023/07/02 09:00:39;;;;;;;3.60;2.60;;;25.40;63.90;;;;;;222523;1259;22505;-55
2023/07/02 09:05:52;;;;;;;6.10;2.10;;;25.40;63.70;;;;;;222425;1254;22561;-54
2023/07/02 09:11:15;;;;;;;2.60;2.10;;;25.20;64.10;;;;;;222006;1260;22760;-56
2023/07/02 09:16:26;;;;;;;3.00;1.80;;;25.00;64.30;;;;;;222558;1254;25310;-55
2023/07/02 09:21:44;;;;;;;2.10;1.80;;;24.50;65.30;;;;;;222426;1254;22517;-54
2023/07/02 09:26:51;;;;;;;5.50;1.70;;;24.40;66.10;;;;;;222485;1260;22511;-54
2023/07/02 09:32:00;;;;;;;3.90;1.90;;;24.20;65.50;;;;;;222481;1261;24205;-53
2023/07/02 09:37:07;;;;;;;;;;;24.30;65.10;;;;;;222275;1260;22492;-54
2023/07/02 09:42:11;;;;;;;3.80;1.70;;;24.10;65.30;;;;;;222463;1260;24382;-57
2023/07/02 09:47:18;;;;;;;1.90;1.50;;;24.10;65.00;;;;;;222421;1263;25370;-56
2023/07/02 09:52:23;;;;;;;3.10;1.70;;;24.10;65.10;;;;;;222490;1255;25232;-53
2023/07/02 09:57:31;;;;;;;1.50;1.30;;;24.20;64.90;;;;;;222480;1260;22502;-56
2023/07/02 10:02:36;;;;;;;4.30;1.60;;;24.20;64.60;;;;;;222566;1260;25343;-55
2023/07/02 10:07:40;;;;;;;1.40;1.30;;;24.20;64.20;;;;;;222479;1260;22505;-52
2023/07/02 10:12:47;;;;;;;3.10;1.40;;;24.10;64.60;;;;;;222328;1260;22536;-51
2023/07/02 10:17:59;;;;;;;11.30;2.00;;;24.10;64.90;;;;;;222414;1257;22510;-50
2023/07/02 10:23:07;;;;;;;1.70;1.60;;;24.10;65.50;;;;;;222511;1260;24167;-45
2023/07/02 10:28:19;;;;;;;2.00;1.60;;;24.00;64.50;;;;;;222516;1260;25326;-53
2023/07/02 10:33:24;;;;;;;1.90;1.80;;;23.90;64.70;;;;;;222731;1260;24243;-49
2023/07/02 10:38:28;;;;;;;1.80;1.70;;;23.90;63.70;;;;;;222217;1266;22517;-54
2023/07/02 10:43:33;;;;;;;1.70;1.60;;;23.90;63.30;;;;;;222435;1261;25380;-52
2023/07/02 10:48:38;;;;;;;1.60;1.50;;;23.90;62.70;;;;;;222510;1254;24228;-51
2023/07/02 10:53:46;;;;;;;2.30;1.60;;;24.00;61.50;;;;;;222691;1261;24171;-50
2023/07/02 10:58:54;;;;;;;4.60;1.70;;;24.00;60.90;;;;;;222485;1257;24337;-54
2023/07/02 11:04:00;;;;;;;1.50;1.40;;;23.90;60.10;;;;;;222623;1263;24206;-47
2023/07/02 11:09:16;;;;;;;1.90;1.70;;;24.10;59.50;;;;;;222472;1264;22504;-52
2023/07/02 11:14:31;;;;;;;5.00;1.40;;;24.20;59.00;;;;;;222740;1260;23882;-55
2023/07/02 11:19:36;;;;;;;2.00;1.70;;;24.30;59.10;;;;;;222502;1260;22590;-51
2023/07/02 11:24:41;;;;;;;4.20;1.50;;;24.40;58.70;;;;;;222355;1260;22504;-53
2023/07/02 11:29:45;;;;;;;1.50;1.40;;;24.50;58.40;;;;;;222748;1266;25455;-54
2023/07/02 11:34:54;;;;;;;2.10;1.50;;;24.30;58.40;;;;;;222408;1260;24142;-55
2023/07/02 11:39:59;;;;;;;3.80;1.70;;;24.50;58.60;;;;;;222400;1261;22521;-55
2023/07/02 11:45:04;;;;;;;1.50;1.40;;;24.50;57.60;;;;;;222362;1260;25340;-56
2023/07/02 11:50:10;;;;;;;1.50;1.40;;;24.50;58.10;;;;;;222456;1266;22691;-56
2023/07/02 11:55:29;;;;;;;1.60;1.50;;;24.40;58.30;;;;;;222446;1260;24224;-54
2023/07/02 12:00:33;;;;;;;1.60;1.50;;;24.50;57.10;;;;;;222306;1245;23880;-53
2023/07/02 12:05:37;;;;;;;2.60;1.40;;;24.60;57.30;;;;;;222864;1263;22507;-52
2023/07/02 12:10:42;;;;;;;1.60;1.50;;;24.70;57.00;;;;;;222515;1253;25337;-51
2023/07/02 12:15:47;;;;;;;2.10;1.60;;;24.50;57.80;;;;;;222376;1268;23956;-52
2023/07/02 12:20:52;;;;;;;2.90;1.50;;;24.40;57.20;;;;;;222232;1251;23744;-50
2023/07/02 12:25:56;;;;;;;1.80;1.50;;;24.60;57.10;;;;;;222949;1261;22513;-53
2023/07/02 12:31:02;;;;;;;2.10;1.80;;;24.70;56.90;;;;;;222218;1266;24225;-54
2023/07/02 12:36:06;;;;;;;6.10;1.60;;;24.80;57.20;;;;;;222493;1263;22530;-54
2023/07/02 12:41:10;;;;;;;3.60;1.60;;;24.90;57.10;;;;;;222449;1268;22512;-52
2023/07/02 12:46:14;;;;;;;2.90;2.00;;;24.90;57.50;;;;;;222381;1254;22784;-52
2023/07/02 12:51:19;;;;;;;3.80;1.60;;;24.90;57.80;;;;;;222394;1260;25287;-52
2023/07/02 12:56:23;;;;;;;3.30;1.90;;;24.90;57.80;;;;;;222129;1265;24180;-52
2023/07/02 13:01:28;;;;;;;8.00;1.70;;;25.10;57.50;;;;;;222210;1256;25272;-51
2023/07/02 13:06:39;;;;;;;3.30;2.00;;;25.10;57.10;;;;;;222430;1261;22630;-52
2023/07/02 13:11:45;;;;;;;3.80;1.80;;;25.10;56.80;;;;;;222682;1260;23260;-52
2023/07/02 13:16:51;;;;;;;4.00;1.70;;;25.10;56.10;;;;;;222610;1266;25582;-54
2023/07/02 13:21:55;;;;;;;37.20;16.90;;;25.10;55.50;;;;;;222318;1260;23725;-54
2023/07/02 13:27:06;;;;;;;59.50;28.70;;;25.20;55.30;;;;;;222478;1268;22603;-48
2023/07/02 13:32:11;;;;;;;61.30;28.10;;;25.10;55.60;;;;;;222550;1254;24190;-52
2023/07/02 13:37:18;;;;;;;30.60;12.00;;;25.10;55.30;;;;;;222380;1250;22553;-52
2023/07/02 13:42:23;;;;;;;15.60;8.00;;;24.90;54.10;;;;;;221177;1267;22630;-54
2023/07/02 13:47:28;;;;;;;5.80;3.30;;;25.00;53.00;;;;;;220955;1270;22524;-51
2023/07/02 13:52:33;;;;;;;4.60;2.60;;;24.90;52.20;;;;;;220865;1253;22528;-52
2023/07/02 13:57:38;;;;;;;3.10;1.80;;;24.80;52.10;;;;;;220924;1268;22770;-53
2023/07/02 14:02:43;;;;;;;6.80;2.10;;;25.10;51.30;;;;;;222375;1254;23425;-50
2023/07/02 14:07:48;;;;;;;2.00;1.80;;;25.10;51.30;;;;;;222596;1268;22968;-52
2023/07/02 14:12:53;;;;;;;2.40;1.60;;;25.20;51.30;;;;;;222429;1260;294579;-52
2023/07/02 14:17:58;;;;;;;3.30;1.60;;;25.30;51.60;;;;;;222618;1266;23846;-53
2023/07/02 14:23:03;;;;;;;1.80;1.60;;;25.10;50.30;;;;;;222380;1260;25265;-51
2023/07/02 14:28:09;;;;;;;3.50;1.80;;;25.00;50.30;;;;;;222436;1266;23009;-50
2023/07/02 14:33:15;;;;;;;8.10;2.70;;;25.10;50.30;;;;;;222531;1260;24218;-52
2023/07/02 14:38:20;;;;;;;2.50;1.50;;;25.30;52.00;;;;;;222262;1261;25294;-52
2023/07/02 14:43:27;;;;;;;2.00;1.50;;;25.20;51.80;;;;;;222735;1260;22589;-51
2023/07/02 14:48:32;;;;;;;6.70;2.10;;;25.30;52.90;;;;;;222341;1268;22594;-50
2023/07/02 14:53:36;;;;;;;1.80;1.70;;;25.40;52.50;;;;;;222332;1260;22632;-52
2023/07/02 14:58:40;;;;;;;20.00;3.10;;;25.40;52.60;;;;;;222559;1260;24401;-51
2023/07/02 15:03:45;;;;;;;4.40;1.90;;;25.40;53.00;;;;;;222580;1261;22508;-51
2023/07/02 15:08:50;;;;;;;1.50;1.40;;;25.40;53.40;;;;;;222494;1263;22524;-50
2023/07/02 15:13:57;;;;;;;2.30;1.40;;;25.50;53.30;;;;;;222322;1266;22630;-52
2023/07/02 15:19:05;;;;;;;3.70;1.70;;;25.50;53.40;;;;;;222233;1263;22542;-53
2023/07/02 15:24:12;;;;;;;7.80;1.70;;;25.50;53.30;;;;;;222407;1261;22513;-54
2023/07/02 15:29:16;;;;;;;6.90;1.90;;;25.60;54.20;;;;;;222556;1257;22526;-51
2023/07/02 15:34:24;;;;;;;5.10;4.40;;;25.60;54.00;;;;;;222420;1263;24181;-51
2023/07/02 15:39:32;;;;;;;4.90;4.40;;;25.70;53.50;;;;;;222656;1261;24358;-50
2023/07/02 15:44:37;;;;;;;5.70;5.20;;;25.60;53.70;;;;;;222407;1257;23560;-52
2023/07/02 15:49:41;;;;;;;6.00;4.00;;;25.20;51.50;;;;;;222411;1261;24250;-56
2023/07/02 15:54:46;;;;;;;4.60;4.20;;;25.10;50.60;;;;;;222259;1255;22518;-58
2023/07/02 15:59:50;;;;;;;4.40;2.80;;;25.10;50.60;;;;;;222336;1261;22526;-53
2023/07/02 16:04:55;;;;;;;6.00;2.40;;;24.90;49.80;;;;;;222203;1263;22857;-54
2023/07/02 16:10:00;;;;;;;6.60;2.60;;;25.10;50.00;;;;;;222400;1260;25424;-53
2023/07/02 16:15:04;;;;;;;45.60;33.10;;;25.20;49.40;;;;;;221871;1261;24176;-54
2023/07/02 16:20:09;;;;;;;120.40;72.00;;;25.30;49.70;;;;;;222214;1261;22924;-53
2023/07/02 16:25:15;;;;;;;139.20;81.80;;;25.30;48.80;;;;;;222307;1262;22624;-55
2023/07/02 16:30:19;;;;;;;137.90;91.60;;;25.30;49.70;;;;;;220764;1272;22524;-55
2023/07/02 16:35:23;;;;;;;66.40;39.70;;;25.40;49.90;;;;;;221065;1263;24190;-54
2023/07/02 16:40:28;;;;;;;47.70;32.10;;;25.20;49.90;;;;;;220668;1253;24206;-52
2023/07/02 16:45:33;;;;;;;15.40;11.20;;;25.40;49.70;;;;;;220853;1251;24898;-55
2023/07/02 16:50:37;;;;;;;10.00;7.40;;;25.30;49.70;;;;;;220876;1268;22570;-55
2023/07/02 16:55:43;;;;;;;9.10;6.60;;;25.40;49.50;;;;;;222598;1260;22690;-52
2023/07/02 17:00:48;;;;;;;6.10;4.50;;;25.40;50.40;;;;;;222311;1254;24180;-53
2023/07/02 17:05:54;;;;;;;6.00;3.10;;;25.40;50.30;;;;;;222016;1263;23000;-55
2023/07/02 17:10:58;;;;;;;4.60;3.00;;;25.40;50.50;;;;;;222365;1260;22525;-55
2023/07/02 17:16:05;;;;;;;4.20;3.00;;;25.30;50.70;;;;;;222155;1267;22667;-54
2023/07/02 17:21:09;;;;;;;4.30;2.70;;;25.30;50.70;;;;;;222143;1269;22572;-54
2023/07/02 17:26:13;;;;;;;3.50;2.10;;;25.40;50.70;;;;;;222262;1261;22664;-55
2023/07/02 17:31:17;;;;;;;1.70;1.60;;;25.20;51.20;;;;;;222620;1260;22733;-52
2023/07/02 17:36:24;;;;;;;11.40;8.90;;;25.20;51.40;;;;;;222506;1263;22512;-53
2023/07/02 17:41:33;;;;;;;16.30;11.70;;;25.30;51.30;;;;;;222206;1254;22649;-54
2023/07/02 17:46:44;;;;;;;9.70;8.20;;;25.30;51.50;;;;;;221828;1254;22518;-54
2023/07/02 17:51:51;;;;;;;7.80;6.00;;;25.20;51.90;;;;;;224232;1268;23137;-55
2023/07/02 17:56:58;;;;;;;6.10;4.80;;;25.10;52.00;;;;;;222240;1263;22503;-55
2023/07/02 18:02:07;;;;;;;5.60;4.40;;;25.10;52.40;;;;;;222783;1264;24698;-55
2023/07/02 18:07:19;;;;;;;3.50;3.20;;;25.10;52.70;;;;;;222703;1268;24423;-58
2023/07/02 18:12:25;;;;;;;3.10;2.70;;;25.00;53.40;;;;;;222252;1266;25429;-54
2023/07/02 18:17:31;;;;;;;3.40;3.10;;;24.80;54.10;;;;;;222754;1264;24190;-53
2023/07/02 18:22:36;;;;;;;6.00;2.90;;;24.70;54.50;;;;;;222505;1266;22537;-55
2023/07/02 18:27:41;;;;;;;6.90;2.70;;;24.70;54.90;;;;;;222085;1254;22513;-45
2023/07/02 18:32:45;;;;;;;5.10;2.50;;;24.80;54.80;;;;;;222535;1263;23930;-48
2023/07/02 18:37:51;;;;;;;11.10;2.20;;;24.80;54.60;;;;;;222147;1261;22530;-47
2023/07/02 18:42:56;;;;;;;6.10;2.40;;;24.70;54.80;;;;;;222417;1254;25265;-47
2023/07/02 18:48:01;;;;;;;10.20;2.30;;;24.70;54.70;;;;;;222261;1260;22518;-49
2023/07/02 18:53:07;;;;;;;9.30;2.90;;;24.50;54.90;;;;;;222143;1254;25737;-47
2023/07/02 18:58:13;;;;;;;3.50;2.50;;;24.40;55.30;;;;;;222204;1260;22534;-48
2023/07/02 19:03:20;;;;;;;4.90;2.40;;;24.40;56.00;;;;;;222315;1255;22877;-51
2023/07/02 19:08:28;;;;;;;2.40;2.20;;;24.40;55.90;;;;;;222290;1257;25371;-47
2023/07/02 19:13:34;;;;;;;3.10;2.40;;;24.40;55.60;;;;;;222513;1267;24218;-47
2023/07/02 19:18:40;;;;;;;4.10;2.60;;;24.30;55.90;;;;;;222485;1262;24153;-49
2023/07/02 19:23:45;;;;;;;7.00;3.80;;;24.40;55.60;;;;;;222273;1260;24269;-48
2023/07/02 19:28:50;;;;;;;4.10;3.00;;;24.40;55.10;;;;;;222676;1262;22646;-49
2023/07/02 19:33:55;;;;;;;3.20;2.40;;;24.30;55.20;;;;;;222095;1267;22514;-52
2023/07/02 19:39:00;;;;;;;3.60;2.60;;;24.10;56.30;;;;;;222412;1261;22563;-47
2023/07/02 19:44:06;;;;;;;3.70;2.70;;;24.10;56.10;;;;;;222079;1264;22554;-50
2023/07/02 19:49:14;;;;;;;3.60;2.60;;;23.90;56.60;;;;;;222118;1260;22546;-48
2023/07/02 19:54:19;;;;;;;4.60;2.60;;;24.00;56.60;;;;;;223055;1261;25222;-51
2023/07/02 19:59:23;;;;;;;6.40;3.20;;;24.30;56.60;;;;;;222716;1263;22518;-47
2023/07/02 20:04:29;;;;;;;5.50;4.50;;;24.50;56.80;;;;;;222206;1254;22514;-40
2023/07/02 20:09:37;;;;;;;5.30;4.10;;;24.70;56.20;;;;;;222170;1261;25597;-46
2023/07/02 20:14:45;;;;;;;4.90;3.30;;;24.90;55.90;;;;;;222417;1260;22514;-46
2023/07/02 20:19:51;;;;;;;4.10;3.80;;;24.90;55.70;;;;;;222266;1248;23960;-48
2023/07/02 20:24:56;;;;;;;5.50;4.30;;;25.10;55.40;;;;;;222393;1264;24137;-45
2023/07/02 20:30:21;;;;;;;4.10;3.80;;;25.10;55.90;;;;;;222277;1264;24145;-51
2023/07/02 20:35:25;;;;;;;7.10;3.90;;;25.00;56.00;;;;;;222407;1260;22574;-56
2023/07/02 20:40:30;;;;;;;13.10;4.80;;;25.10;56.20;;;;;;222342;1266;24257;-55
2023/07/02 20:45:38;;;;;;;13.90;4.30;;;25.10;56.90;;;;;;222070;1267;22563;-54
2023/07/02 20:50:45;;;;;;;5.70;3.80;;;25.10;58.30;;;;;;222065;1267;22927;-53
2023/07/02 20:55:54;;;;;;;4.10;3.10;;;25.00;58.00;;;;;;222495;1254;24110;-56
2023/07/02 21:01:07;;;;;;;5.60;2.90;;;25.10;57.50;;;;;;222438;1254;22525;-55
2023/07/02 21:06:11;;;;;;;3.50;3.10;;;25.10;57.30;;;;;;221974;1264;22503;-55
2023/07/02 21:11:15;;;;;;;3.20;3.00;;;25.00;57.00;;;;;;221879;1260;22518;-54
2023/07/02 21:16:36;;;;;;;5.90;3.60;;;25.00;57.00;;;;;;222251;1260;26643;-54
2023/07/02 21:21:45;;;;;;;4.50;3.40;;;25.00;58.40;;;;;;221977;1254;22511;-52
2023/07/02 21:26:53;;;;;;;3.60;3.30;;;25.00;57.80;;;;;;222229;1254;24182;-54
2023/07/02 21:31:59;;;;;;;5.90;3.30;;;24.90;57.70;;;;;;222686;1254;24278;-56
2023/07/02 21:37:04;;;;;;;5.30;3.10;;;24.90;57.60;;;;;;222455;1253;25139;-53
2023/07/02 21:42:10;;;;;;;6.80;3.30;;;24.90;57.70;;;;;;222532;1254;22567;-52
2023/07/02 21:47:15;;;;;;;5.30;3.40;;;24.90;58.10;;;;;;222602;1260;22527;-54
2023/07/02 21:52:20;;;;;;;4.30;3.10;;;24.90;57.80;;;;;;222212;1256;22661;-54
2023/07/02 21:57:28;;;;;;;4.80;3.00;;;24.90;57.80;;;;;;222240;1247;24240;-54
2023/07/02 22:02:32;;;;;;;3.50;3.10;;;24.80;57.80;;;;;;222372;1257;22629;-54
2023/07/02 22:07:36;;;;;;;3.00;2.80;;;24.80;58.00;;;;;;222319;1263;24330;-55
2023/07/02 22:12:41;;;;;;;2.60;2.40;;;24.80;58.00;;;;;;222354;1254;24183;-53
2023/07/02 22:17:46;;;;;;;3.90;3.00;;;24.80;58.00;;;;;;222436;1253;25383;-53
2023/07/02 22:22:51;;;;;;;3.90;2.90;;;24.80;58.00;;;;;;222265;1262;22511;-53
2023/07/02 22:27:56;;;;;;;3.90;3.00;;;24.80;58.00;;;;;;224044;1263;22768;-52
2023/07/02 22:33:00;;;;;;;5.20;3.50;;;24.80;58.10;;;;;;228841;1263;22517;-52
2023/07/02 22:38:05;;;;;;;3.00;2.80;;;24.90;57.10;;;;;;223145;1264;22602;-53
2023/07/02 22:43:09;;;;;;;3.40;3.10;;;25.00;57.20;;;;;;222326;1254;22625;-55
2023/07/02 22:48:13;;;;;;;6.10;3.50;;;24.90;57.60;;;;;;222393;1254;22518;-55
2023/07/02 22:53:18;;;;;;;4.10;3.10;;;24.80;57.70;;;;;;222451;1262;22530;-52
2023/07/02 22:58:22;;;;;;;3.90;3.10;;;24.70;57.90;;;;;;222378;1250;23357;-55
2023/07/02 23:03:26;;;;;;;6.70;3.50;;;24.80;57.80;;;;;;222151;1253;25313;-54
2023/07/02 23:08:31;;;;;;;3.90;3.60;;;24.80;57.80;;;;;;222280;1258;25799;-56
2023/07/02 23:13:35;;;;;;;4.90;3.50;;;24.70;57.80;;;;;;222306;1263;22638;-56
2023/07/02 23:18:39;;;;;;;3.40;3.10;;;24.70;58.20;;;;;;222486;1256;23861;-53
2023/07/02 23:23:44;;;;;;;4.70;3.40;;;24.60;57.80;;;;;;222172;1263;22570;-54
2023/07/02 23:28:52;;;;;;;3.90;3.40;;;24.60;57.70;;;;;;222281;1263;22511;-55
2023/07/02 23:33:57;;;;;;;3.90;3.60;;;24.60;57.60;;;;;;222612;1263;22570;-54
2023/07/02 23:39:01;;;;;;;5.00;4.50;;;24.60;57.70;;;;;;222201;1261;22511;-56
2023/07/02 23:44:09;;;;;;;5.20;3.90;;;24.60;57.80;;;;;;222262;1263;25337;-53
2023/07/02 23:49:13;;;;;;;4.40;3.80;;;24.50;58.10;;;;;;222317;1263;25467;-53
2023/07/02 23:54:17;;;;;;;4.40;3.70;;;24.50;58.00;;;;;;222240;1260;23636;-55
2023/07/02 23:59:22;;;;;;;4.30;3.70;;;24.50;57.90;;;;;;222453;1263;24208;-53
